Seafalcon — 9HA2814 — position and weather

sailwx.info

Track history (hours):
 
Tides and Currents Weather Stations Pressure Air Temp Water Temp Dewpoint Dewpoint Depression Visibility Wind Speed Wind Dir Waves Ship Positions

Seafalcon

Last reported at 2016-Feb-03 22:31 UTC. Time now 2016-Feb-06 11:38 UTC.
Position N 36°23' E 014°46'.

Length 250 m; draft 14.2 m.

Type: Ship (hazmat cat A). MMSI: 256078000.

Date/timePositionNaut miles runAvg speedWind from/ knotsBaromVisibWave heightAir tempDewpointWater temp
2016-Feb-03 22:31N 36°23' E 014°46'1213.0
2016-Feb-03 21:33N 36°26' E 014°32'1313.2
2016-Feb-03 20:33N 36°30' E 014°16'1913.1
2016-Feb-03 19:08N 36°35' E 013°53'58112.6
2016-Feb-01 21:05N 36°57' E 001°49'713.1
2016-Feb-01 20:33N 36°56' E 001°40'1513.5
2016-Feb-01 19:27N 36°54' E 001°22'1213.4
2016-Feb-01 18:33N 36°52' E 001°07'1313.0
2016-Feb-01 17:33N 36°50' E 000°51'1312.7
2016-Feb-01 16:33N 36°48' E 000°35'12213.5
2016-Feb-01 07:33N 36°25' W 001°53'1414.3
2016-Feb-01 06:33N 36°22' W 002°11'1613.5
2016-Feb-01 05:25N 36°20' W 002°30'1113.0
2016-Feb-01 04:33N 36°18' W 002°43'1212.4
2016-Feb-01 03:33N 36°16' W 002°58'11013.5
2016-Jan-31 19:26N 35°59' W 005°13'1315.2
2016-Jan-31 18:34N 35°57' W 005°29'1413.6
2016-Jan-31 17:30N 35°55' W 005°47'11512.8
2016-Jan-31 08:30N 36°16' W 008°06'1112.1
2016-Jan-31 07:33N 36°18' W 008°20'1312.7
2016-Jan-31 06:33N 36°21' W 008°36'1312.9
2016-Jan-31 05:34N 36°24' W 008°51'1412.0
2016-Jan-31 04:24N 36°28' W 009°08'1112.7
2016-Jan-31 03:30N 36°31' W 009°21'1212.1
2016-Jan-31 02:33N 36°39' W 009°31'1211.8
2016-Jan-31 01:30N 36°50' W 009°39'1211.8
2016-Jan-31 00:30N 37°02' W 009°43'1313.3
2016-Jan-30 23:33N 37°14' W 009°46'1512.3
2016-Jan-30 22:18N 37°29' W 009°50'1013.6
2016-Jan-30 21:33N 37°39' W 009°53'1312.3
2016-Jan-30 20:30N 37°51' W 009°57'1212.5
2016-Jan-30 19:33N 38°03' W 010°00'1313.0
2016-Jan-30 18:33N 38°16' W 010°04'1211.9
2016-Jan-30 17:33N 38°27' W 010°08'1212.4
2016-Jan-30 16:33N 38°39' W 010°12'1212.4
2016-Jan-30 15:33N 38°51' W 010°16'9 8.5
2016-Jan-30 14:33N 38°59' W 010°12'1212.0
2016-Jan-30 13:33N 39°11' W 010°12'1212.4
2016-Jan-30 12:33N 39°23' W 010°11'1413.1
2016-Jan-30 11:30N 39°37' W 010°11'1611.9
2016-Jan-30 10:12N 39°53' W 010°12'913.3
2016-Jan-30 09:34N 40°01' W 010°11'1312.6
2016-Jan-30 08:33N 40°14' W 010°11'1212.0
2016-Jan-30 07:33N 40°26' W 010°12'1312.7
2016-Jan-30 06:33N 40°39' W 010°12'1312.2
2016-Jan-30 05:30N 40°51' W 010°12'1112.1
2016-Jan-30 04:33N 41°03' W 010°11'1312.5
2016-Jan-30 03:31N 41°16' W 010°11'1111.5
2016-Jan-30 02:33N 41°27' W 010°12'1312.5
2016-Jan-30 01:33N 41°40' W 010°11'1312.5
2016-Jan-30 00:33N 41°52' W 010°12'  
2016-Jan-27 00:32N 50°30' W 000°01'8 7.2
2016-Jan-26 23:28N 50°32' E 000°11'7 6.6
2016-Jan-26 22:27N 50°34' E 000°21'6 7.1
2016-Jan-26 21:33N 50°36' E 000°31'8 8.2
2016-Jan-26 20:33N 50°39' E 000°42'10 9.7
2016-Jan-26 19:33N 50°45' E 000°55'1210.3
2016-Jan-26 18:23N 50°52' E 001°11'8 9.7
2016-Jan-26 17:33N 50°57' E 001°21'9 8.7
2016-Jan-26 16:33N 51°03' E 001°30'7 7.1
2016-Jan-26 15:33N 51°08' E 001°38'7 6.9
2016-Jan-26 14:33N 51°13' E 001°45'7 7.4
2016-Jan-26 13:33N 51°20' E 001°51'9 8.6
2016-Jan-26 12:33N 51°27' E 001°58'1110.6
2016-Jan-26 11:33N 51°35' E 002°09'21211.0
2016-Jan-25 16:19N 54°42' E 004°58'911.4
2016-Jan-25 15:33N 54°49' E 005°04'1211.5
2016-Jan-25 14:33N 54°60' E 005°13'6311.7
2016-Jan-25 09:08N 55°56' E 006°03'711.6
2016-Jan-25 08:31N 56°03' E 006°08'  
Track history (hours):
 
Tides and Currents Weather Stations Pressure Air Temp Water Temp Dewpoint Dewpoint Depression Visibility Wind Speed Wind Dir Waves Ship Positions

Seafalcon

Last reported at 2016-Feb-03 22:31 UTC. Time now 2016-Feb-06 11:38 UTC.
Position N 36°23' E 014°46'.

Length 250 m; draft 14.2 m.

Type: Ship (hazmat cat A). MMSI: 256078000.

Date/timePositionNaut miles runAvg speedWind from/ knotsBaromVisibWave heightAir tempDewpointWater temp
2016-Feb-03 22:31N 36°23' E 014°46'1213.0
2016-Feb-03 21:33N 36°26' E 014°32'1313.2
2016-Feb-03 20:33N 36°30' E 014°16'1913.1
2016-Feb-03 19:08N 36°35' E 013°53'58112.6
2016-Feb-01 21:05N 36°57' E 001°49'713.1
2016-Feb-01 20:33N 36°56' E 001°40'1513.5
2016-Feb-01 19:27N 36°54' E 001°22'1213.4
2016-Feb-01 18:33N 36°52' E 001°07'1313.0
2016-Feb-01 17:33N 36°50' E 000°51'1312.7
2016-Feb-01 16:33N 36°48' E 000°35'12213.5
2016-Feb-01 07:33N 36°25' W 001°53'1414.3
2016-Feb-01 06:33N 36°22' W 002°11'1613.5
2016-Feb-01 05:25N 36°20' W 002°30'1113.0
2016-Feb-01 04:33N 36°18' W 002°43'1212.4
2016-Feb-01 03:33N 36°16' W 002°58'11013.5
2016-Jan-31 19:26N 35°59' W 005°13'1315.2
2016-Jan-31 18:34N 35°57' W 005°29'1413.6
2016-Jan-31 17:30N 35°55' W 005°47'11512.8
2016-Jan-31 08:30N 36°16' W 008°06'1112.1
2016-Jan-31 07:33N 36°18' W 008°20'1312.7
2016-Jan-31 06:33N 36°21' W 008°36'1312.9
2016-Jan-31 05:34N 36°24' W 008°51'1412.0
2016-Jan-31 04:24N 36°28' W 009°08'1112.7
2016-Jan-31 03:30N 36°31' W 009°21'1212.1
2016-Jan-31 02:33N 36°39' W 009°31'1211.8
2016-Jan-31 01:30N 36°50' W 009°39'1211.8
2016-Jan-31 00:30N 37°02' W 009°43'1313.3
2016-Jan-30 23:33N 37°14' W 009°46'1512.3
2016-Jan-30 22:18N 37°29' W 009°50'1013.6
2016-Jan-30 21:33N 37°39' W 009°53'1312.3
2016-Jan-30 20:30N 37°51' W 009°57'1212.5
2016-Jan-30 19:33N 38°03' W 010°00'1313.0
2016-Jan-30 18:33N 38°16' W 010°04'1211.9
2016-Jan-30 17:33N 38°27' W 010°08'1212.4
2016-Jan-30 16:33N 38°39' W 010°12'1212.4
2016-Jan-30 15:33N 38°51' W 010°16'9 8.5
2016-Jan-30 14:33N 38°59' W 010°12'1212.0
2016-Jan-30 13:33N 39°11' W 010°12'1212.4
2016-Jan-30 12:33N 39°23' W 010°11'1413.1
2016-Jan-30 11:30N 39°37' W 010°11'1611.9
2016-Jan-30 10:12N 39°53' W 010°12'913.3
2016-Jan-30 09:34N 40°01' W 010°11'1312.6
2016-Jan-30 08:33N 40°14' W 010°11'1212.0
2016-Jan-30 07:33N 40°26' W 010°12'1312.7
2016-Jan-30 06:33N 40°39' W 010°12'1312.2
2016-Jan-30 05:30N 40°51' W 010°12'1112.1
2016-Jan-30 04:33N 41°03' W 010°11'1312.5
2016-Jan-30 03:31N 41°16' W 010°11'1111.5
2016-Jan-30 02:33N 41°27' W 010°12'1312.5
2016-Jan-30 01:33N 41°40' W 010°11'1312.5
2016-Jan-30 00:33N 41°52' W 010°12'  
2016-Jan-27 00:32N 50°30' W 000°01'8 7.2
2016-Jan-26 23:28N 50°32' E 000°11'7 6.6
2016-Jan-26 22:27N 50°34' E 000°21'6 7.1
2016-Jan-26 21:33N 50°36' E 000°31'8 8.2
2016-Jan-26 20:33N 50°39' E 000°42'10 9.7
2016-Jan-26 19:33N 50°45' E 000°55'1210.3
2016-Jan-26 18:23N 50°52' E 001°11'8 9.7
2016-Jan-26 17:33N 50°57' E 001°21'9 8.7
2016-Jan-26 16:33N 51°03' E 001°30'7 7.1
2016-Jan-26 15:33N 51°08' E 001°38'7 6.9
2016-Jan-26 14:33N 51°13' E 001°45'7 7.4
2016-Jan-26 13:33N 51°20' E 001°51'9 8.6
2016-Jan-26 12:33N 51°27' E 001°58'1110.6
2016-Jan-26 11:33N 51°35' E 002°09'21211.0
2016-Jan-25 16:19N 54°42' E 004°58'911.4
2016-Jan-25 15:33N 54°49' E 005°04'1211.5
2016-Jan-25 14:33N 54°60' E 005°13'6311.7
2016-Jan-25 09:08N 55°56' E 006°03'711.6
2016-Jan-25 08:31N 56°03' E 006°08'  

Dump ship's entire track history